Time,TemperatureF,DewpointF,PressureIn,WindDirection,WindDirectionDegrees,WindSpeedMPH,WindSpeedGustMPH,Humidity,HourlyPrecipIn,Conditions,Clouds,dailyrainin,SoftwareType,DateUTC
2013-05-31 12:00:00,82.0,77.0,-100.00,South,188,11.0,-999.0,84,0.00,,,-99.99,,2013-05-31 17:00:00,
2013-05-31 12:32:00,82.0,77.0,-100.00,South,188,11.0,-999.0,84,0.00,,,-99.99,,2013-05-31 17:32:00,
2013-05-31 12:42:00,82.0,77.0,-100.00,South,188,11.0,-999.0,84,0.00,,,-99.99,,2013-05-31 17:42:00,
2013-05-31 12:52:00,82.0,77.0,-100.00,South,188,11.0,-999.0,84,0.00,,,-99.99,,2013-05-31 17:52:00,
2013-05-31 13:00:00,84.0,76.0,-100.00,SSE,166,11.0,-999.0,78,0.00,,,-99.99,,2013-05-31 18:00:00,
2013-05-31 13:32:00,84.0,76.0,-100.00,SSE,166,11.0,-999.0,78,0.00,,,-99.99,,2013-05-31 18:32:00,
2013-05-31 13:42:00,84.0,76.0,-100.00,SSE,166,11.0,-999.0,78,0.00,,,-99.99,,2013-05-31 18:42:00,
2013-05-31 13:52:00,84.0,76.0,-100.00,SSE,166,11.0,-999.0,78,0.00,,,-99.99,,2013-05-31 18:52:00,
2013-05-31 14:00:00,84.0,76.0,-100.00,SSW,198,10.0,-999.0,78,0.00,,,-99.99,,2013-05-31 19:00:00,
2013-05-31 14:32:00,84.0,76.0,-100.00,SSW,198,10.0,-999.0,78,0.00,,,-99.99,,2013-05-31 19:32:00,
2013-05-31 14:42:00,84.0,76.0,-100.00,SSW,198,10.0,-999.0,78,0.00,,,-99.99,,2013-05-31 19:42:00,
2013-05-31 14:52:00,84.0,76.0,-100.00,SSW,198,10.0,-999.0,78,0.00,,,-99.99,,2013-05-31 19:52:00,
2013-05-31 15:00:00,87.0,77.0,-100.00,South,188,9.0,-999.0,74,0.00,,,-99.99,,2013-05-31 20:00:00,
2013-05-31 15:32:00,87.0,77.0,-100.00,South,188,9.0,-999.0,74,0.00,,,-99.99,,2013-05-31 20:32:00,
2013-05-31 15:42:00,87.0,77.0,-100.00,South,188,9.0,-999.0,74,0.00,,,-99.99,,2013-05-31 20:42:00,
2013-05-31 15:52:00,87.0,77.0,-100.00,South,188,9.0,-999.0,74,0.00,,,-99.99,,2013-05-31 20:52:00,
2013-05-31 16:00:00,88.0,77.0,-100.00,South,170,9.0,-999.0,71,0.00,,,-99.99,,2013-05-31 21:00:00,
2013-05-31 16:32:00,88.0,77.0,-100.00,South,170,9.0,-999.0,71,0.00,,,-99.99,,2013-05-31 21:32:00,
2013-05-31 16:43:00,88.0,77.0,-100.00,South,170,9.0,-999.0,71,0.00,,,-99.99,,2013-05-31 21:43:00,
2013-05-31 16:54:00,88.0,77.0,-100.00,South,170,9.0,-999.0,71,0.00,,,-99.99,,2013-05-31 21:54:00,
2013-05-31 17:00:00,88.0,76.0,-100.00,South,177,10.0,-999.0,68,0.00,,,-99.99,,2013-05-31 22:00:00,
2013-05-31 17:33:00,88.0,76.0,-100.00,South,177,10.0,-999.0,68,0.00,,,-99.99,,2013-05-31 22:33:00,
2013-05-31 17:42:00,88.0,76.0,-100.00,South,177,10.0,-999.0,68,0.00,,,-99.99,,2013-05-31 22:42:00,
2013-05-31 17:53:00,88.0,76.0,-100.00,South,177,10.0,-999.0,68,0.00,,,-99.99,,2013-05-31 22:53:00,
2013-05-31 18:00:00,88.0,77.0,-100.00,South,172,10.0,-999.0,69,0.00,,,-99.99,,2013-05-31 23:00:00,
2013-05-31 18:32:00,88.0,77.0,-100.00,South,172,10.0,-999.0,69,0.00,,,-99.99,,2013-05-31 23:32:00,
2013-05-31 18:42:00,88.0,77.0,-100.00,South,172,10.0,-999.0,69,0.00,,,-99.99,,2013-05-31 23:42:00,
2013-05-31 18:52:00,88.0,77.0,-100.00,South,172,10.0,-999.0,69,0.00,,,-99.99,,2013-05-31 23:52:00,
2013-05-31 19:00:00,86.0,76.0,-100.00,SSE,166,13.0,-999.0,71,0.00,,,-99.99,,2013-06-01 00:00:00,
2013-05-31 19:22:00,86.0,76.0,-100.00,SSE,166,13.0,-999.0,71,0.00,,,-99.99,,2013-06-01 00:22:00,
2013-05-31 19:32:00,86.0,76.0,-100.00,SSE,166,13.0,-999.0,71,0.00,,,-99.99,,2013-06-01 00:32:00,
2013-05-31 19:42:00,86.0,76.0,-100.00,SSE,166,13.0,-999.0,71,0.00,,,-99.99,,2013-06-01 00:42:00,
2013-05-31 19:52:00,86.0,76.0,-100.00,SSE,166,13.0,-999.0,71,0.00,,,-99.99,,2013-06-01 00:52:00,
2013-05-31 20:00:00,84.0,76.0,-100.00,South,172,4.0,-999.0,77,0.00,,,-99.99,,2013-06-01 01:00:00,
2013-05-31 20:32:00,84.0,76.0,-100.00,South,172,4.0,-999.0,77,0.00,,,-99.99,,2013-06-01 01:32:00,
2013-05-31 20:42:00,84.0,76.0,-100.00,South,172,4.0,-999.0,77,0.00,,,-99.99,,2013-06-01 01:42:00,
2013-05-31 20:52:00,84.0,76.0,-100.00,South,172,4.0,-999.0,77,0.00,,,-99.99,,2013-06-01 01:52:00,
2013-05-31 21:00:00,80.0,75.0,-100.00,SE,141,3.0,-999.0,86,0.00,,,-99.99,,2013-06-01 02:00:00,
2013-05-31 21:32:00,80.0,75.0,-100.00,SE,141,3.0,-999.0,86,0.00,,,-99.99,,2013-06-01 02:32:00,
2013-05-31 21:42:00,80.0,75.0,-100.00,SE,141,3.0,-999.0,86,0.00,,,-99.99,,2013-06-01 02:42:00,
2013-05-31 21:52:00,80.0,75.0,-100.00,SE,141,3.0,-999.0,86,0.00,,,-99.99,,2013-06-01 02:52:00,
2013-05-31 22:00:00,78.0,75.0,-100.00,SSE,159,6.0,-999.0,91,0.00,,,-99.99,,2013-06-01 03:00:00,
2013-05-31 22:33:00,78.0,75.0,-100.00,SSE,159,6.0,-999.0,91,0.00,,,-99.99,,2013-06-01 03:33:00,
2013-05-31 22:43:00,78.0,75.0,-100.00,SSE,159,6.0,-999.0,91,0.00,,,-99.99,,2013-06-01 03:43:00,
2013-05-31 22:53:00,78.0,75.0,-100.00,SSE,159,6.0,-999.0,91,0.00,,,-99.99,,2013-06-01 03:53:00,
2013-05-31 23:00:00,79.0,76.0,-100.00,SSE,156,5.0,-999.0,89,0.00,,,-99.99,,2013-06-01 04:00:00,
2013-05-31 23:33:00,79.0,76.0,-100.00,SSE,156,5.0,-999.0,89,0.00,,,-99.99,,2013-06-01 04:33:00,
2013-05-31 23:42:00,79.0,76.0,-100.00,SSE,156,5.0,-999.0,89,0.00,,,-99.99,,2013-06-01 04:42:00,
2013-05-31 23:53:00,79.0,76.0,-100.00,SSE,156,5.0,-999.0,89,0.00,,,-99.99,,2013-06-01 04:53:00,